sensor_id;sensor_type;location;lat;lon;timestamp;pressure;altitude;pressure_sealevel;temperature;humidity
22753;BME280;11543;43.144;24.684;2022-08-05T00:01:59;98770.41;;;23.66;47.21
22753;BME280;11543;43.144;24.684;2022-08-05T00:04:24;98755.53;;;23.62;47.24
22753;BME280;11543;43.144;24.684;2022-08-05T00:06:49;98767.09;;;23.64;47.11
22753;BME280;11543;43.144;24.684;2022-08-05T00:09:15;98759.84;;;23.58;47.21
22753;BME280;11543;43.144;24.684;2022-08-05T00:11:40;98779.91;;;23.75;47.14
22753;BME280;11543;43.144;24.684;2022-08-05T00:14:06;98779.56;;;23.71;47.41
22753;BME280;11543;43.144;24.684;2022-08-05T00:16:31;98759.94;;;23.63;47.00
22753;BME280;11543;43.144;24.684;2022-08-05T00:18:57;98784.22;;;23.71;47.04
22753;BME280;11543;43.144;24.684;2022-08-05T00:21:22;98768.97;;;23.51;47.16
22753;BME280;11543;43.144;24.684;2022-08-05T00:23:48;98755.41;;;23.45;47.13
22753;BME280;11543;43.144;24.684;2022-08-05T00:26:15;98776.97;;;23.53;47.67
22753;BME280;11543;43.144;24.684;2022-08-05T00:28:41;98746.38;;;23.21;48.04
22753;BME280;11543;43.144;24.684;2022-08-05T00:31:07;98781.47;;;23.24;48.31
22753;BME280;11543;43.144;24.684;2022-08-05T00:33:33;98787.06;;;23.06;48.86
22753;BME280;11543;43.144;24.684;2022-08-05T00:35:58;98759.88;;;22.69;49.40
22753;BME280;11543;43.144;24.684;2022-08-05T00:38:24;98769.97;;;22.69;49.78
22753;BME280;11543;43.144;24.684;2022-08-05T00:40:52;98778.41;;;22.67;49.89
22753;BME280;11543;43.144;24.684;2022-08-05T00:43:19;98763.69;;;22.68;49.71
22753;BME280;11543;43.144;24.684;2022-08-05T00:45:44;98764.75;;;22.79;49.32
22753;BME280;11543;43.144;24.684;2022-08-05T00:48:14;98748.00;;;22.75;49.40
22753;BME280;11543;43.144;24.684;2022-08-05T00:50:41;98754.22;;;22.82;49.30
22753;BME280;11543;43.144;24.684;2022-08-05T00:53:08;98766.00;;;22.95;49.25
22753;BME280;11543;43.144;24.684;2022-08-05T00:55:34;98746.13;;;22.87;48.73
22753;BME280;11543;43.144;24.684;2022-08-05T00:57:59;98777.31;;;23.10;48.45
22753;BME280;11543;43.144;24.684;2022-08-05T01:00:26;98775.28;;;23.17;48.31
22753;BME280;11543;43.144;24.684;2022-08-05T01:02:52;98766.38;;;23.10;48.52
22753;BME280;11543;43.144;24.684;2022-08-05T01:05:18;98767.56;;;23.14;48.49
22753;BME280;11543;43.144;24.684;2022-08-05T01:07:46;98751.00;;;23.09;48.19
22753;BME280;11543;43.144;24.684;2022-08-05T01:10:34;98757.56;;;23.08;48.20
22753;BME280;11543;43.144;24.684;2022-08-05T01:13:07;98760.78;;;23.16;48.32
22753;BME280;11543;43.144;24.684;2022-08-05T01:15:40;98749.94;;;23.10;48.07
22753;BME280;11543;43.144;24.684;2022-08-05T01:18:12;98763.63;;;23.22;47.97
22753;BME280;11543;43.144;24.684;2022-08-05T01:26:36;98762.66;;;23.16;48.32
22753;BME280;11543;43.144;24.684;2022-08-05T01:29:03;98772.44;;;23.24;48.20
22753;BME280;11543;43.144;24.684;2022-08-05T01:31:41;98768.84;;;23.23;48.48
22753;BME280;11543;43.144;24.684;2022-08-05T01:34:21;98775.75;;;23.26;48.16
22753;BME280;11543;43.144;24.684;2022-08-05T01:37:06;98771.59;;;23.23;48.22
22753;BME280;11543;43.144;24.684;2022-08-05T01:39:35;98753.28;;;23.12;48.66
22753;BME280;11543;43.144;24.684;2022-08-05T01:42:07;98772.31;;;23.07;48.92
22753;BME280;11543;43.144;24.684;2022-08-05T01:44:36;98768.97;;;22.81;49.34
22753;BME280;11543;43.144;24.684;2022-08-05T01:47:04;98774.50;;;22.63;50.20
22753;BME280;11543;43.144;24.684;2022-08-05T01:49:32;98777.63;;;22.48;50.54
22753;BME280;11543;43.144;24.684;2022-08-05T01:52:01;98781.41;;;22.36;50.93
22753;BME280;11543;43.144;24.684;2022-08-05T01:55:12;98773.47;;;22.16;51.32
22753;BME280;11543;43.144;24.684;2022-08-05T01:57:30;98769.31;;;22.13;51.49
22753;BME280;11543;43.144;24.684;2022-08-05T02:00:03;98766.72;;;22.18;51.47
22753;BME280;11543;43.144;24.684;2022-08-05T02:02:30;98782.31;;;22.30;50.97
22753;BME280;11543;43.144;24.684;2022-08-05T02:05:00;98785.56;;;22.38;50.92
22753;BME280;11543;43.144;24.684;2022-08-05T02:07:26;98774.63;;;22.38;50.72
22753;BME280;11543;43.144;24.684;2022-08-05T02:09:52;98776.19;;;22.46;50.48
22753;BME280;11543;43.144;24.684;2022-08-05T02:12:54;98775.25;;;22.52;50.34
22753;BME280;11543;43.144;24.684;2022-08-05T02:15:33;98770.56;;;22.59;50.27
22753;BME280;11543;43.144;24.684;2022-08-05T02:18:06;98771.75;;;22.63;49.98
22753;BME280;11543;43.144;24.684;2022-08-05T02:20:46;98777.34;;;22.68;49.89
22753;BME280;11543;43.144;24.684;2022-08-05T02:23:15;98773.56;;;22.69;49.81
22753;BME280;11543;43.144;24.684;2022-08-05T02:25:43;98762.47;;;22.64;49.84
22753;BME280;11543;43.144;24.684;2022-08-05T02:28:12;98759.16;;;22.62;49.99
22753;BME280;11543;43.144;24.684;2022-08-05T02:30:47;98757.47;;;22.61;49.94
22753;BME280;11543;43.144;24.684;2022-08-05T02:33:16;98770.34;;;22.72;49.81
22753;BME280;11543;43.144;24.684;2022-08-05T02:35:44;98756.34;;;22.50;50.40
22753;BME280;11543;43.144;24.684;2022-08-05T02:38:12;98758.22;;;22.38;50.56
22753;BME280;11543;43.144;24.684;2022-08-05T02:40:41;98770.06;;;22.20;51.11
22753;BME280;11543;43.144;24.684;2022-08-05T02:43:07;98777.22;;;22.03;51.68
22753;BME280;11543;43.144;24.684;2022-08-05T02:45:35;98757.13;;;21.79;52.27
22753;BME280;11543;43.144;24.684;2022-08-05T02:48:04;98764.34;;;21.74;52.46
22753;BME280;11543;43.144;24.684;2022-08-05T02:50:31;98764.72;;;21.77;52.53
22753;BME280;11543;43.144;24.684;2022-08-05T02:52:58;98782.09;;;21.83;52.57
22753;BME280;11543;43.144;24.684;2022-08-05T02:55:24;98767.66;;;21.57;53.01
22753;BME280;11543;43.144;24.684;2022-08-05T02:57:51;98769.47;;;21.45;53.19
22753;BME280;11543;43.144;24.684;2022-08-05T03:00:18;98757.34;;;21.41;53.57
22753;BME280;11543;43.144;24.684;2022-08-05T03:02:44;98772.34;;;21.50;53.35
22753;BME280;11543;43.144;24.684;2022-08-05T03:05:12;98768.41;;;21.65;52.95
22753;BME280;11543;43.144;24.684;2022-08-05T03:07:40;98775.88;;;21.76;52.71
22753;BME280;11543;43.144;24.684;2022-08-05T03:10:08;98760.00;;;21.66;52.71
22753;BME280;11543;43.144;24.684;2022-08-05T03:12:35;98767.34;;;21.47;53.26
22753;BME280;11543;43.144;24.684;2022-08-05T03:15:06;98782.22;;;21.51;53.58
22753;BME280;11543;43.144;24.684;2022-08-05T03:17:33;98769.47;;;21.45;53.32
22753;BME280;11543;43.144;24.684;2022-08-05T03:19:59;98781.38;;;21.51;53.58
22753;BME280;11543;43.144;24.684;2022-08-05T03:22:25;98784.34;;;21.49;53.56
22753;BME280;11543;43.144;24.684;2022-08-05T03:24:52;98783.03;;;21.52;53.36
22753;BME280;11543;43.144;24.684;2022-08-05T03:27:21;98766.06;;;21.50;53.29
22753;BME280;11543;43.144;24.684;2022-08-05T03:29:47;98782.25;;;21.70;53.00
22753;BME280;11543;43.144;24.684;2022-08-05T03:32:14;98787.09;;;21.68;53.02
22753;BME280;11543;43.144;24.684;2022-08-05T03:34:41;98774.03;;;21.51;53.16
22753;BME280;11543;43.144;24.684;2022-08-05T03:37:07;98769.47;;;21.45;53.34
22753;BME280;11543;43.144;24.684;2022-08-05T03:39:33;98772.97;;;21.52;53.43
22753;BME280;11543;43.144;24.684;2022-08-05T03:41:59;98789.50;;;21.57;53.11
22753;BME280;11543;43.144;24.684;2022-08-05T03:44:26;98772.44;;;21.44;53.14
22753;BME280;11543;43.144;24.684;2022-08-05T03:46:52;98780.56;;;21.50;53.57
22753;BME280;11543;43.144;24.684;2022-08-05T03:49:17;98774.47;;;21.48;53.44
22753;BME280;11543;43.144;24.684;2022-08-05T03:56:47;98778.44;;;21.71;52.81
22753;BME280;11543;43.144;24.684;2022-08-05T03:59:27;98778.97;;;21.61;52.95
22753;BME280;11543;43.144;24.684;2022-08-05T04:01:57;98789.59;;;21.69;53.18
22753;BME280;11543;43.144;24.684;2022-08-05T04:04:24;98776.78;;;21.70;52.82
22753;BME280;11543;43.144;24.684;2022-08-05T04:06:51;98778.28;;;21.66;53.00
22753;BME280;11543;43.144;24.684;2022-08-05T04:09:17;98776.91;;;21.56;53.37
22753;BME280;11543;43.144;24.684;2022-08-05T04:11:43;98773.19;;;21.51;53.46
22753;BME280;11543;43.144;24.684;2022-08-05T04:14:09;98761.97;;;21.41;54.01
22753;BME280;11543;43.144;24.684;2022-08-05T04:16:36;98764.47;;;21.42;54.29
22753;BME280;11543;43.144;24.684;2022-08-05T04:19:02;98784.34;;;21.49;54.58
22753;BME280;11543;43.144;24.684;2022-08-05T04:21:28;98777.44;;;21.47;54.56
22753;BME280;11543;43.144;24.684;2022-08-05T04:23:54;98776.00;;;21.44;54.44
22753;BME280;11543;43.144;24.684;2022-08-05T04:26:19;98770.63;;;21.38;54.73
22753;BME280;11543;43.144;24.684;2022-08-05T04:28:45;98787.06;;;21.49;54.80
22753;BME280;11543;43.144;24.684;2022-08-05T04:31:10;98777.38;;;21.53;54.34
22753;BME280;11543;43.144;24.684;2022-08-05T04:33:36;98781.31;;;21.57;54.41
22753;BME280;11543;43.144;24.684;2022-08-05T04:36:01;98788.13;;;21.67;54.26
22753;BME280;11543;43.144;24.684;2022-08-05T04:38:27;98769.44;;;21.70;54.04
22753;BME280;11543;43.144;24.684;2022-08-05T04:40:52;98780.56;;;21.87;53.91
22753;BME280;11543;43.144;24.684;2022-08-05T04:43:18;98781.00;;;22.02;53.78
22753;BME280;11543;43.144;24.684;2022-08-05T04:45:44;98786.78;;;22.12;53.20
22753;BME280;11543;43.144;24.684;2022-08-05T04:48:11;98793.72;;;22.27;53.16
22753;BME280;11543;43.144;24.684;2022-08-05T04:50:41;98770.66;;;22.22;52.90
22753;BME280;11543;43.144;24.684;2022-08-05T04:53:08;98792.69;;;22.39;52.68
22753;BME280;11543;43.144;24.684;2022-08-05T04:55:36;98764.25;;;22.29;52.38
22753;BME280;11543;43.144;24.684;2022-08-05T04:58:02;98797.44;;;22.62;52.54
22753;BME280;11543;43.144;24.684;2022-08-05T05:00:29;98774.81;;;22.55;52.07
22753;BME280;11543;43.144;24.684;2022-08-05T05:02:55;98763.78;;;22.62;51.81
22753;BME280;11543;43.144;24.684;2022-08-05T05:05:20;98788.25;;;22.86;51.78
22753;BME280;11543;43.144;24.684;2022-08-05T05:07:46;98776.94;;;22.95;51.41
22753;BME280;11543;43.144;24.684;2022-08-05T05:10:11;98799.19;;;23.10;51.11
22753;BME280;11543;43.144;24.684;2022-08-05T05:12:37;98772.91;;;23.09;50.92
22753;BME280;11543;43.144;24.684;2022-08-05T05:15:03;98784.22;;;23.24;50.86
22753;BME280;11543;43.144;24.684;2022-08-05T05:17:38;98772.31;;;23.30;50.73
22753;BME280;11543;43.144;24.684;2022-08-05T05:20:06;98785.41;;;23.51;50.40
22753;BME280;11543;43.144;24.684;2022-08-05T05:22:32;98754.44;;;23.39;50.27
22753;BME280;11543;43.144;24.684;2022-08-05T05:24:57;98763.06;;;23.55;50.08
22753;BME280;11543;43.144;24.684;2022-08-05T05:27:23;98784.31;;;23.76;49.86
22753;BME280;11543;43.144;24.684;2022-08-05T05:29:48;98755.66;;;23.67;49.65
22753;BME280;11543;43.144;24.684;2022-08-05T05:32:14;98749.91;;;23.80;49.39
22753;BME280;11543;43.144;24.684;2022-08-05T05:34:39;98761.75;;;23.97;48.94
22753;BME280;11543;43.144;24.684;2022-08-05T05:37:04;98766.94;;;24.10;48.78
22753;BME280;11543;43.144;24.684;2022-08-05T05:39:30;98761.47;;;24.10;48.64
22753;BME280;11543;43.144;24.684;2022-08-05T05:41:55;98755.09;;;24.22;48.85
22753;BME280;11543;43.144;24.684;2022-08-05T05:44:21;98764.25;;;24.39;48.96
22753;BME280;11543;43.144;24.684;2022-08-05T05:46:46;98781.41;;;24.63;48.54
22753;BME280;11543;43.144;24.684;2022-08-05T05:49:12;98763.44;;;24.55;48.67
22753;BME280;11543;43.144;24.684;2022-08-05T05:51:37;98755.38;;;24.65;48.08
22753;BME280;11543;43.144;24.684;2022-08-05T05:54:02;98778.25;;;24.88;48.13
22753;BME280;11543;43.144;24.684;2022-08-05T05:56:29;98789.78;;;25.01;47.44
22753;BME280;11543;43.144;24.684;2022-08-05T05:58:55;98780.28;;;25.09;47.33
22753;BME280;11543;43.144;24.684;2022-08-05T06:01:20;98776.31;;;25.17;47.05
22753;BME280;11543;43.144;24.684;2022-08-05T06:03:46;98794.44;;;25.34;46.94
22753;BME280;11543;43.144;24.684;2022-08-05T06:06:11;98779.63;;;25.35;46.89
22753;BME280;11543;43.144;24.684;2022-08-05T06:08:36;98766.97;;;25.34;46.67
22753;BME280;11543;43.144;24.684;2022-08-05T06:11:02;98789.22;;;25.55;46.18
22753;BME280;11543;43.144;24.684;2022-08-05T06:13:28;98772.75;;;25.55;46.46
22753;BME280;11543;43.144;24.684;2022-08-05T06:15:53;98771.31;;;25.69;45.99
22753;BME280;11543;43.144;24.684;2022-08-05T06:18:19;98776.69;;;25.81;45.73
22753;BME280;11543;43.144;24.684;2022-08-05T06:20:44;98779.81;;;25.89;45.37
22753;BME280;11543;43.144;24.684;2022-08-05T06:23:09;98776.25;;;26.11;45.28
22753;BME280;11543;43.144;24.684;2022-08-05T06:25:35;98772.47;;;26.17;44.98
22753;BME280;11543;43.144;24.684;2022-08-05T06:28:00;98776.81;;;26.34;44.86
22753;BME280;11543;43.144;24.684;2022-08-05T06:30:26;98786.06;;;26.50;44.26
22753;BME280;11543;43.144;24.684;2022-08-05T06:32:52;98769.13;;;26.63;43.85
22753;BME280;11543;43.144;24.684;2022-08-05T06:35:18;98783.72;;;26.91;43.13
22753;BME280;11543;43.144;24.684;2022-08-05T06:37:44;98781.59;;;26.98;42.78
22753;BME280;11543;43.144;24.684;2022-08-05T06:40:10;98762.91;;;27.00;42.54
22753;BME280;11543;43.144;24.684;2022-08-05T06:42:36;98749.72;;;27.07;42.26
22753;BME280;11543;43.144;24.684;2022-08-05T06:45:03;98784.66;;;27.39;42.04
22753;BME280;11543;43.144;24.684;2022-08-05T06:47:29;98783.09;;;27.53;41.81
22753;BME280;11543;43.144;24.684;2022-08-05T06:49:55;98773.25;;;27.62;41.66
22753;BME280;11543;43.144;24.684;2022-08-05T06:52:20;98779.44;;;27.79;41.45
22753;BME280;11543;43.144;24.684;2022-08-05T06:54:46;98776.44;;;27.86;40.90
22753;BME280;11543;43.144;24.684;2022-08-05T06:57:11;98764.03;;;27.88;41.18
22753;BME280;11543;43.144;24.684;2022-08-05T06:59:39;98771.78;;;28.02;41.65
22753;BME280;11543;43.144;24.684;2022-08-05T07:02:06;98772.97;;;28.21;40.98
22753;BME280;11543;43.144;24.684;2022-08-05T07:04:31;98770.81;;;28.28;41.37
22753;BME280;11543;43.144;24.684;2022-08-05T07:06:57;98754.81;;;28.30;41.06
22753;BME280;11543;43.144;24.684;2022-08-05T07:09:22;98755.38;;;28.42;41.36
22753;BME280;11543;43.144;24.684;2022-08-05T07:11:48;98760.91;;;28.58;41.31
22753;BME280;11543;43.144;24.684;2022-08-05T07:14:13;98763.72;;;28.68;41.03
22753;BME280;11543;43.144;24.684;2022-08-05T07:16:58;98779.22;;;28.89;41.04
22753;BME280;11543;43.144;24.684;2022-08-05T07:19:25;98778.69;;;29.02;40.75
22753;BME280;11543;43.144;24.684;2022-08-05T07:21:52;98755.19;;;29.15;40.46
22753;BME280;11543;43.144;24.684;2022-08-05T07:24:17;98781.13;;;29.34;40.42
22753;BME280;11543;43.144;24.684;2022-08-05T07:26:44;98770.91;;;29.45;40.14
22753;BME280;11543;43.144;24.684;2022-08-05T07:29:09;98768.16;;;29.55;40.40
22753;BME280;11543;43.144;24.684;2022-08-05T07:31:35;98772.00;;;29.59;40.18
22753;BME280;11543;43.144;24.684;2022-08-05T07:34:00;98756.50;;;29.63;39.76
22753;BME280;11543;43.144;24.684;2022-08-05T07:36:27;98750.94;;;29.78;39.54
22753;BME280;11543;43.144;24.684;2022-08-05T07:38:53;98769.09;;;30.05;39.40
22753;BME280;11543;43.144;24.684;2022-08-05T07:41:20;98757.97;;;30.15;38.64
22753;BME280;11543;43.144;24.684;2022-08-05T07:43:47;98751.88;;;30.18;38.38
22753;BME280;11543;43.144;24.684;2022-08-05T07:46:12;98758.44;;;30.32;38.54
22753;BME280;11543;43.144;24.684;2022-08-05T07:48:38;98750.63;;;30.45;37.95
22753;BME280;11543;43.144;24.684;2022-08-05T07:51:03;98758.03;;;30.59;37.67
22753;BME280;11543;43.144;24.684;2022-08-05T07:53:29;98749.97;;;30.63;37.36
22753;BME280;11543;43.144;24.684;2022-08-05T07:55:54;98756.47;;;30.82;37.51
22753;BME280;11543;43.144;24.684;2022-08-05T07:58:20;98743.94;;;30.90;37.43
22753;BME280;11543;43.144;24.684;2022-08-05T08:00:45;98769.44;;;31.26;37.15
22753;BME280;11543;43.144;24.684;2022-08-05T08:03:12;98760.97;;;31.41;36.99
22753;BME280;11543;43.144;24.684;2022-08-05T08:05:41;98757.44;;;31.59;36.74
22753;BME280;11543;43.144;24.684;2022-08-05T08:08:11;98756.13;;;31.81;36.39
22753;BME280;11543;43.144;24.684;2022-08-05T08:10:38;98750.69;;;31.94;35.64
22753;BME280;11543;43.144;24.684;2022-08-05T08:13:04;98753.50;;;32.13;35.21
22753;BME280;11543;43.144;24.684;2022-08-05T08:15:30;98765.63;;;32.41;35.10
22753;BME280;11543;43.144;24.684;2022-08-05T08:17:55;98743.66;;;32.45;35.40
22753;BME280;11543;43.144;24.684;2022-08-05T08:20:21;98759.84;;;32.75;34.93
22753;BME280;11543;43.144;24.684;2022-08-05T08:22:55;98750.47;;;32.90;34.47
22753;BME280;11543;43.144;24.684;2022-08-05T08:25:21;98743.75;;;33.10;34.27
22753;BME280;11543;43.144;24.684;2022-08-05T08:27:47;98733.31;;;33.34;33.44
22753;BME280;11543;43.144;24.684;2022-08-05T08:30:12;98744.06;;;33.54;33.00
22753;BME280;11543;43.144;24.684;2022-08-05T08:32:38;98746.94;;;33.77;32.41
22753;BME280;11543;43.144;24.684;2022-08-05T08:35:04;98747.72;;;33.96;31.65
22753;BME280;11543;43.144;24.684;2022-08-05T08:37:30;98729.03;;;34.10;32.18
22753;BME280;11543;43.144;24.684;2022-08-05T08:39:55;98722.59;;;34.24;32.04
22753;BME280;11543;43.144;24.684;2022-08-05T08:42:21;98745.22;;;34.58;31.60
22753;BME280;11543;43.144;24.684;2022-08-05T08:44:48;98729.94;;;34.69;31.20
22753;BME280;11543;43.144;24.684;2022-08-05T08:47:14;98725.16;;;34.84;30.90
22753;BME280;11543;43.144;24.684;2022-08-05T08:49:44;98740.97;;;35.19;30.78
22753;BME280;11543;43.144;24.684;2022-08-05T08:52:12;98728.91;;;35.32;29.66
22753;BME280;11543;43.144;24.684;2022-08-05T08:54:38;98731.16;;;35.53;29.61
22753;BME280;11543;43.144;24.684;2022-08-05T08:57:05;98728.31;;;35.75;29.47
22753;BME280;11543;43.144;24.684;2022-08-05T08:59:32;98719.84;;;35.97;29.02
22753;BME280;11543;43.144;24.684;2022-08-05T09:01:57;98719.38;;;36.13;28.58
22753;BME280;11543;43.144;24.684;2022-08-05T09:04:24;98721.75;;;36.36;27.61
22753;BME280;11543;43.144;24.684;2022-08-05T09:06:50;98712.91;;;36.60;26.71
22753;BME280;11543;43.144;24.684;2022-08-05T09:09:15;98712.06;;;36.68;25.90
22753;BME280;11543;43.144;24.684;2022-08-05T09:11:41;98690.38;;;36.65;25.66
22753;BME280;11543;43.144;24.684;2022-08-05T09:14:07;98695.16;;;36.56;26.03
22753;BME280;11543;43.144;24.684;2022-08-05T09:16:32;98703.84;;;36.63;26.39
22753;BME280;11543;43.144;24.684;2022-08-05T09:18:58;98692.69;;;36.81;25.85
22753;BME280;11543;43.144;24.684;2022-08-05T09:21:23;98696.25;;;37.07;25.90
22753;BME280;11543;43.144;24.684;2022-08-05T09:24:06;98694.91;;;37.30;25.96
22753;BME280;11543;43.144;24.684;2022-08-05T09:26:37;98696.47;;;37.49;25.30
22753;BME280;11543;43.144;24.684;2022-08-05T09:29:06;98695.63;;;37.57;25.36
22753;BME280;11543;43.144;24.684;2022-08-05T09:31:33;98680.06;;;37.39;24.46
22753;BME280;11543;43.144;24.684;2022-08-05T09:34:07;98690.59;;;37.42;24.87
22753;BME280;11543;43.144;24.684;2022-08-05T09:36:42;98693.41;;;37.33;24.69
22753;BME280;11543;43.144;24.684;2022-08-05T09:39:11;98687.00;;;37.15;25.22
22753;BME280;11543;43.144;24.684;2022-08-05T09:41:59;98695.53;;;37.27;25.76
22753;BME280;11543;43.144;24.684;2022-08-05T09:44:39;98689.09;;;37.44;25.42
22753;BME280;11543;43.144;24.684;2022-08-05T09:47:18;98690.97;;;37.61;25.24
22753;BME280;11543;43.144;24.684;2022-08-05T09:49:49;98675.63;;;37.67;24.97
22753;BME280;11543;43.144;24.684;2022-08-05T09:55:07;98670.13;;;38.09;25.01
22753;BME280;11543;43.144;24.684;2022-08-05T09:57:40;98674.00;;;38.25;24.56
22753;BME280;11543;43.144;24.684;2022-08-05T10:02:40;98669.63;;;38.07;24.71
22753;BME280;11543;43.144;24.684;2022-08-05T10:05:19;98677.19;;;37.85;25.07
22753;BME280;11543;43.144;24.684;2022-08-05T10:10:14;98673.25;;;37.86;25.18
22753;BME280;11543;43.144;24.684;2022-08-05T10:12:54;98670.72;;;37.93;25.29
22753;BME280;11543;43.144;24.684;2022-08-05T10:15:28;98659.31;;;37.99;25.18
22753;BME280;11543;43.144;24.684;2022-08-05T10:20:31;98669.63;;;38.36;23.69
22753;BME280;11543;43.144;24.684;2022-08-05T10:22:57;98639.97;;;38.35;23.56
22753;BME280;11543;43.144;24.684;2022-08-05T10:25:23;98636.53;;;38.50;22.96
22753;BME280;11543;43.144;24.684;2022-08-05T10:27:48;98643.09;;;38.54;23.31
22753;BME280;11543;43.144;24.684;2022-08-05T10:30:14;98639.97;;;38.35;23.76
22753;BME280;11543;43.144;24.684;2022-08-05T10:32:39;98625.75;;;38.40;22.82
22753;BME280;11543;43.144;24.684;2022-08-05T10:35:05;98635.84;;;38.53;22.83
22753;BME280;11543;43.144;24.684;2022-08-05T10:37:31;98646.91;;;38.71;22.57
22753;BME280;11543;43.144;24.684;2022-08-05T10:40:00;98619.81;;;38.75;23.27
22753;BME280;11543;43.144;24.684;2022-08-05T10:42:31;98628.13;;;39.04;22.58
22753;BME280;11543;43.144;24.684;2022-08-05T10:45:05;98633.28;;;39.39;22.36
22753;BME280;11543;43.144;24.684;2022-08-05T10:47:32;98636.44;;;39.37;21.87
22753;BME280;11543;43.144;24.684;2022-08-05T10:50:07;98641.59;;;39.47;22.58
22753;BME280;11543;43.144;24.684;2022-08-05T10:52:50;98634.00;;;39.60;22.43
22753;BME280;11543;43.144;24.684;2022-08-05T10:55:23;98614.94;;;39.66;21.87
22753;BME280;11543;43.144;24.684;2022-08-05T10:58:05;98616.09;;;39.89;20.97
22753;BME280;11543;43.144;24.684;2022-08-05T11:00:30;98618.06;;;39.76;20.77
22753;BME280;11543;43.144;24.684;2022-08-05T11:05:32;98615.50;;;39.84;20.50
22753;BME280;11543;43.144;24.684;2022-08-05T11:08:06;98606.13;;;39.92;20.92
22753;BME280;11543;43.144;24.684;2022-08-05T11:10:33;98621.31;;;40.15;20.71
22753;BME280;11543;43.144;24.684;2022-08-05T11:13:02;98616.56;;;40.31;20.42
22753;BME280;11543;43.144;24.684;2022-08-05T11:20:43;98602.44;;;40.56;20.02
22753;BME280;11543;43.144;24.684;2022-08-05T11:28:47;98613.63;;;40.80;20.68
22753;BME280;11543;43.144;24.684;2022-08-05T11:36:14;98605.84;;;41.21;19.88
22753;BME280;11543;43.144;24.684;2022-08-05T11:44:03;98585.56;;;41.47;19.24
22753;BME280;11543;43.144;24.684;2022-08-05T11:46:39;98578.31;;;41.46;19.11
22753;BME280;11543;43.144;24.684;2022-08-05T11:49:07;98593.94;;;41.43;19.23
22753;BME280;11543;43.144;24.684;2022-08-05T11:51:33;98594.22;;;41.38;19.51
22753;BME280;11543;43.144;24.684;2022-08-05T11:53:59;98581.22;;;41.33;19.33
22753;BME280;11543;43.144;24.684;2022-08-05T11:56:42;98578.03;;;41.19;19.62
22753;BME280;11543;43.144;24.684;2022-08-05T11:59:11;98587.03;;;41.09;19.76
22753;BME280;11543;43.144;24.684;2022-08-05T12:01:53;98579.84;;;41.12;19.82
22753;BME280;11543;43.144;24.684;2022-08-05T12:04:20;98575.84;;;41.13;19.76
22753;BME280;11543;43.144;24.684;2022-08-05T12:06:46;98576.41;;;41.34;19.94
22753;BME280;11543;43.144;24.684;2022-08-05T12:09:12;98583.28;;;41.52;19.75
22753;BME280;11543;43.144;24.684;2022-08-05T12:11:42;98581.00;;;41.58;19.58
22753;BME280;11543;43.144;24.684;2022-08-05T12:14:08;98567.00;;;41.77;19.40
22753;BME280;11543;43.144;24.684;2022-08-05T12:16:37;98578.50;;;41.88;19.11
22753;BME280;11543;43.144;24.684;2022-08-05T12:19:04;98562.56;;;41.76;19.34
22753;BME280;11543;43.144;24.684;2022-08-05T12:21:32;98559.16;;;41.86;19.16
22753;BME280;11543;43.144;24.684;2022-08-05T12:24:06;98563.25;;;41.89;18.93
22753;BME280;11543;43.144;24.684;2022-08-05T12:26:38;98561.75;;;41.95;19.52
22753;BME280;11543;43.144;24.684;2022-08-05T12:29:06;98551.63;;;42.10;19.16
22753;BME280;11543;43.144;24.684;2022-08-05T12:31:33;98549.63;;;42.29;18.95
22753;BME280;11543;43.144;24.684;2022-08-05T12:34:03;98558.91;;;42.49;18.43
22753;BME280;11543;43.144;24.684;2022-08-05T12:36:30;98546.22;;;42.59;18.52
22753;BME280;11543;43.144;24.684;2022-08-05T12:38:57;98555.25;;;42.68;17.94
22753;BME280;11543;43.144;24.684;2022-08-05T12:41:32;98541.69;;;42.54;17.82
22753;BME280;11543;43.144;24.684;2022-08-05T12:44:01;98544.44;;;42.51;17.89
22753;BME280;11543;43.144;24.684;2022-08-05T12:46:29;98538.47;;;42.37;18.13
22753;BME280;11543;43.144;24.684;2022-08-05T12:49:15;98534.75;;;42.33;18.19
22753;BME280;11543;43.144;24.684;2022-08-05T12:51:48;98541.91;;;42.46;17.81
22753;BME280;11543;43.144;24.684;2022-08-05T12:54:20;98531.44;;;42.46;18.35
22753;BME280;11543;43.144;24.684;2022-08-05T12:56:50;98541.31;;;42.56;18.68
22753;BME280;11543;43.144;24.684;2022-08-05T12:59:21;98539.94;;;42.69;18.34
22753;BME280;11543;43.144;24.684;2022-08-05T13:04:31;98529.97;;;42.75;17.77
22753;BME280;11543;43.144;24.684;2022-08-05T13:06:58;98523.06;;;42.73;17.84
22753;BME280;11543;43.144;24.684;2022-08-05T13:09:26;98528.19;;;42.86;18.03
22753;BME280;11543;43.144;24.684;2022-08-05T13:12:00;98520.00;;;42.81;17.90
22753;BME280;11543;43.144;24.684;2022-08-05T13:14:27;98505.09;;;42.58;17.91
22753;BME280;11543;43.144;24.684;2022-08-05T13:16:55;98508.97;;;42.50;17.87
22753;BME280;11543;43.144;24.684;2022-08-05T13:19:25;98497.34;;;42.36;18.14
22753;BME280;11543;43.144;24.684;2022-08-05T13:21:52;98511.78;;;42.50;18.63
22753;BME280;11543;43.144;24.684;2022-08-05T13:24:19;98512.22;;;42.52;18.37
22753;BME280;11543;43.144;24.684;2022-08-05T13:26:46;98504.94;;;42.51;18.35
22753;BME280;11543;43.144;24.684;2022-08-05T13:29:12;98511.53;;;42.58;18.15
22753;BME280;11543;43.144;24.684;2022-08-05T13:31:38;98503.59;;;42.45;18.15
22753;BME280;11543;43.144;24.684;2022-08-05T13:34:03;98500.41;;;42.27;18.18
22753;BME280;11543;43.144;24.684;2022-08-05T13:36:29;98503.94;;;42.43;18.07
22753;BME280;11543;43.144;24.684;2022-08-05T13:38:55;98492.47;;;42.33;17.82
22753;BME280;11543;43.144;24.684;2022-08-05T13:41:20;98480.25;;;42.25;18.44
22753;BME280;11543;43.144;24.684;2022-08-05T13:43:46;98483.38;;;42.43;18.08